sensor_id;sensor_type;location;lat;lon;timestamp;P1;durP1;ratioP1;P2;durP2;ratioP2
67841;SDS011;54642;59.126;37.876;2022-08-24T00:00:55;19.15;;;14.38;;
67841;SDS011;54642;59.126;37.876;2022-08-24T00:03:21;18.65;;;14.45;;
67841;SDS011;54642;59.126;37.876;2022-08-24T00:05:48;24.58;;;15.18;;
67841;SDS011;54642;59.126;37.876;2022-08-24T00:08:14;18.70;;;14.75;;
67841;SDS011;54642;59.126;37.876;2022-08-24T00:10:41;19.77;;;14.38;;
67841;SDS011;54642;59.126;37.876;2022-08-24T00:13:06;16.50;;;12.45;;
67841;SDS011;54642;59.126;37.876;2022-08-24T00:15:33;19.67;;;14.93;;
67841;SDS011;54642;59.126;37.876;2022-08-24T00:17:59;22.38;;;13.80;;
67841;SDS011;54642;59.126;37.876;2022-08-24T00:20:25;18.88;;;13.68;;
67841;SDS011;54642;59.126;37.876;2022-08-24T00:22:51;22.67;;;14.40;;
67841;SDS011;54642;59.126;37.876;2022-08-24T00:25:17;17.52;;;15.05;;
67841;SDS011;54642;59.126;37.876;2022-08-24T00:27:45;19.58;;;14.68;;
67841;SDS011;54642;59.126;37.876;2022-08-24T00:30:12;21.17;;;13.57;;
67841;SDS011;54642;59.126;37.876;2022-08-24T00:32:44;22.42;;;15.00;;
67841;SDS011;54642;59.126;37.876;2022-08-24T00:35:11;20.02;;;13.55;;
67841;SDS011;54642;59.126;37.876;2022-08-24T00:37:39;17.15;;;12.77;;
67841;SDS011;54642;59.126;37.876;2022-08-24T00:40:08;20.38;;;15.32;;
67841;SDS011;54642;59.126;37.876;2022-08-24T00:42:43;20.73;;;16.13;;
67841;SDS011;54642;59.126;37.876;2022-08-24T00:45:10;23.15;;;15.55;;
67841;SDS011;54642;59.126;37.876;2022-08-24T00:47:42;21.50;;;15.80;;
67841;SDS011;54642;59.126;37.876;2022-08-24T00:50:13;19.52;;;15.10;;
67841;SDS011;54642;59.126;37.876;2022-08-24T00:52:49;18.67;;;14.45;;
67841;SDS011;54642;59.126;37.876;2022-08-24T00:55:43;19.90;;;15.07;;
67841;SDS011;54642;59.126;37.876;2022-08-24T00:58:12;21.30;;;14.32;;
67841;SDS011;54642;59.126;37.876;2022-08-24T01:00:45;20.73;;;16.00;;
67841;SDS011;54642;59.126;37.876;2022-08-24T01:03:14;17.70;;;14.32;;
67841;SDS011;54642;59.126;37.876;2022-08-24T01:05:41;20.10;;;15.68;;
67841;SDS011;54642;59.126;37.876;2022-08-24T01:08:08;17.35;;;13.82;;
67841;SDS011;54642;59.126;37.876;2022-08-24T01:10:39;19.60;;;15.00;;
67841;SDS011;54642;59.126;37.876;2022-08-24T01:13:08;21.25;;;16.63;;
67841;SDS011;54642;59.126;37.876;2022-08-24T01:15:37;22.45;;;15.80;;
67841;SDS011;54642;59.126;37.876;2022-08-24T01:18:09;20.38;;;15.60;;
67841;SDS011;54642;59.126;37.876;2022-08-24T01:24:03;20.83;;;16.17;;
67841;SDS011;54642;59.126;37.876;2022-08-24T01:26:36;20.05;;;15.38;;
67841;SDS011;54642;59.126;37.876;2022-08-24T01:29:07;20.35;;;15.60;;
67841;SDS011;54642;59.126;37.876;2022-08-24T01:31:36;22.23;;;15.10;;
67841;SDS011;54642;59.126;37.876;2022-08-24T01:34:03;19.42;;;13.70;;
67841;SDS011;54642;59.126;37.876;2022-08-24T01:36:33;23.48;;;15.38;;
67841;SDS011;54642;59.126;37.876;2022-08-24T01:39:05;19.60;;;14.90;;
67841;SDS011;54642;59.126;37.876;2022-08-24T01:41:35;19.58;;;13.55;;
67841;SDS011;54642;59.126;37.876;2022-08-24T01:44:01;18.63;;;15.43;;
67841;SDS011;54642;59.126;37.876;2022-08-24T01:46:28;20.02;;;15.20;;
67841;SDS011;54642;59.126;37.876;2022-08-24T01:48:54;19.35;;;16.00;;
67841;SDS011;54642;59.126;37.876;2022-08-24T01:51:22;22.85;;;16.10;;
67841;SDS011;54642;59.126;37.876;2022-08-24T01:53:49;27.13;;;16.55;;
67841;SDS011;54642;59.126;37.876;2022-08-24T01:56:15;20.70;;;16.02;;
67841;SDS011;54642;59.126;37.876;2022-08-24T01:58:46;21.77;;;15.45;;
67841;SDS011;54642;59.126;37.876;2022-08-24T02:01:14;29.30;;;20.95;;
67841;SDS011;54642;59.126;37.876;2022-08-24T02:03:46;24.92;;;16.45;;
67841;SDS011;54642;59.126;37.876;2022-08-24T02:06:13;23.80;;;14.13;;
67841;SDS011;54642;59.126;37.876;2022-08-24T02:08:39;18.15;;;13.65;;
67841;SDS011;54642;59.126;37.876;2022-08-24T02:11:07;20.10;;;15.18;;
67841;SDS011;54642;59.126;37.876;2022-08-24T02:13:33;20.83;;;14.13;;
67841;SDS011;54642;59.126;37.876;2022-08-24T02:16:01;18.98;;;15.30;;
67841;SDS011;54642;59.126;37.876;2022-08-24T02:18:30;17.40;;;14.35;;
67841;SDS011;54642;59.126;37.876;2022-08-24T02:20:58;21.58;;;16.15;;
67841;SDS011;54642;59.126;37.876;2022-08-24T02:23:24;19.92;;;15.23;;
67841;SDS011;54642;59.126;37.876;2022-08-24T02:25:51;22.65;;;16.15;;
67841;SDS011;54642;59.126;37.876;2022-08-24T02:28:17;20.95;;;15.35;;
67841;SDS011;54642;59.126;37.876;2022-08-24T02:30:44;21.23;;;13.38;;
67841;SDS011;54642;59.126;37.876;2022-08-24T02:33:11;21.45;;;15.55;;
67841;SDS011;54642;59.126;37.876;2022-08-24T02:35:39;23.42;;;16.27;;
67841;SDS011;54642;59.126;37.876;2022-08-24T02:38:06;22.98;;;16.50;;
67841;SDS011;54642;59.126;37.876;2022-08-24T02:40:34;25.27;;;17.70;;
67841;SDS011;54642;59.126;37.876;2022-08-24T02:43:01;23.10;;;16.52;;
67841;SDS011;54642;59.126;37.876;2022-08-24T02:45:27;20.90;;;14.90;;
67841;SDS011;54642;59.126;37.876;2022-08-24T02:47:53;21.25;;;16.88;;
67841;SDS011;54642;59.126;37.876;2022-08-24T02:50:21;23.05;;;17.30;;
67841;SDS011;54642;59.126;37.876;2022-08-24T02:52:47;26.55;;;15.50;;
67841;SDS011;54642;59.126;37.876;2022-08-24T02:55:15;20.02;;;14.68;;
67841;SDS011;54642;59.126;37.876;2022-08-24T02:57:42;21.67;;;16.67;;
67841;SDS011;54642;59.126;37.876;2022-08-24T03:00:09;21.95;;;16.73;;
67841;SDS011;54642;59.126;37.876;2022-08-24T03:02:44;23.08;;;16.48;;
67841;SDS011;54642;59.126;37.876;2022-08-24T03:05:10;24.58;;;14.45;;
67841;SDS011;54642;59.126;37.876;2022-08-24T03:07:36;21.00;;;16.02;;
67841;SDS011;54642;59.126;37.876;2022-08-24T03:10:03;23.73;;;16.88;;
67841;SDS011;54642;59.126;37.876;2022-08-24T03:12:30;23.42;;;14.35;;
67841;SDS011;54642;59.126;37.876;2022-08-24T03:14:57;21.17;;;16.85;;
67841;SDS011;54642;59.126;37.876;2022-08-24T03:17:23;21.75;;;15.93;;
67841;SDS011;54642;59.126;37.876;2022-08-24T03:19:49;26.33;;;16.80;;
67841;SDS011;54642;59.126;37.876;2022-08-24T03:22:15;24.80;;;16.17;;
67841;SDS011;54642;59.126;37.876;2022-08-24T03:24:41;22.55;;;15.52;;
67841;SDS011;54642;59.126;37.876;2022-08-24T03:27:07;22.00;;;15.35;;
67841;SDS011;54642;59.126;37.876;2022-08-24T03:29:34;25.63;;;17.75;;
67841;SDS011;54642;59.126;37.876;2022-08-24T03:32:01;24.33;;;15.18;;
67841;SDS011;54642;59.126;37.876;2022-08-24T03:34:28;24.83;;;16.45;;
67841;SDS011;54642;59.126;37.876;2022-08-24T03:36:54;27.17;;;19.67;;
67841;SDS011;54642;59.126;37.876;2022-08-24T03:39:20;23.83;;;15.88;;
67841;SDS011;54642;59.126;37.876;2022-08-24T03:41:49;22.40;;;17.10;;
67841;SDS011;54642;59.126;37.876;2022-08-24T03:44:14;22.52;;;17.58;;
67841;SDS011;54642;59.126;37.876;2022-08-24T03:46:40;25.10;;;16.10;;
67841;SDS011;54642;59.126;37.876;2022-08-24T03:49:07;24.75;;;16.95;;
67841;SDS011;54642;59.126;37.876;2022-08-24T03:51:35;21.88;;;16.05;;
67841;SDS011;54642;59.126;37.876;2022-08-24T03:54:04;23.58;;;16.25;;
67841;SDS011;54642;59.126;37.876;2022-08-24T03:56:32;26.02;;;15.82;;
67841;SDS011;54642;59.126;37.876;2022-08-24T03:58:59;26.73;;;16.85;;
67841;SDS011;54642;59.126;37.876;2022-08-24T04:01:28;26.23;;;16.95;;
67841;SDS011;54642;59.126;37.876;2022-08-24T04:03:54;22.10;;;15.13;;
67841;SDS011;54642;59.126;37.876;2022-08-24T04:08:52;22.92;;;17.02;;
67841;SDS011;54642;59.126;37.876;2022-08-24T04:11:21;22.23;;;15.27;;
67841;SDS011;54642;59.126;37.876;2022-08-24T04:13:50;22.30;;;15.77;;
67841;SDS011;54642;59.126;37.876;2022-08-24T04:16:18;23.27;;;17.30;;
67841;SDS011;54642;59.126;37.876;2022-08-24T04:18:50;24.60;;;17.98;;
67841;SDS011;54642;59.126;37.876;2022-08-24T04:23:43;24.80;;;17.25;;
67841;SDS011;54642;59.126;37.876;2022-08-24T04:26:09;25.65;;;16.17;;
67841;SDS011;54642;59.126;37.876;2022-08-24T04:28:35;28.30;;;18.55;;
67841;SDS011;54642;59.126;37.876;2022-08-24T04:31:02;28.40;;;19.38;;
67841;SDS011;54642;59.126;37.876;2022-08-24T04:33:37;27.17;;;19.45;;
67841;SDS011;54642;59.126;37.876;2022-08-24T04:36:07;24.63;;;17.45;;
67841;SDS011;54642;59.126;37.876;2022-08-24T04:38:37;24.42;;;17.58;;
67841;SDS011;54642;59.126;37.876;2022-08-24T04:41:32;25.52;;;18.25;;
67841;SDS011;54642;59.126;37.876;2022-08-24T04:43:59;27.75;;;16.75;;
67841;SDS011;54642;59.126;37.876;2022-08-24T04:46:26;21.55;;;17.55;;
67841;SDS011;54642;59.126;37.876;2022-08-24T04:48:53;24.25;;;15.82;;
67841;SDS011;54642;59.126;37.876;2022-08-24T04:51:20;24.05;;;17.50;;
67841;SDS011;54642;59.126;37.876;2022-08-24T04:53:46;26.67;;;17.20;;
67841;SDS011;54642;59.126;37.876;2022-08-24T04:56:16;25.08;;;17.38;;
67841;SDS011;54642;59.126;37.876;2022-08-24T04:58:45;22.40;;;16.10;;
67841;SDS011;54642;59.126;37.876;2022-08-24T05:01:12;35.03;;;16.73;;
67841;SDS011;54642;59.126;37.876;2022-08-24T05:03:42;21.15;;;15.15;;
67841;SDS011;54642;59.126;37.876;2022-08-24T05:06:10;24.30;;;14.63;;
67841;SDS011;54642;59.126;37.876;2022-08-24T05:08:38;23.17;;;15.63;;
67841;SDS011;54642;59.126;37.876;2022-08-24T05:11:04;21.67;;;16.67;;
67841;SDS011;54642;59.126;37.876;2022-08-24T05:13:34;19.85;;;16.90;;
67841;SDS011;54642;59.126;37.876;2022-08-24T05:16:00;23.10;;;17.05;;
67841;SDS011;54642;59.126;37.876;2022-08-24T05:18:31;23.92;;;16.40;;
67841;SDS011;54642;59.126;37.876;2022-08-24T05:20:58;27.08;;;14.85;;
67841;SDS011;54642;59.126;37.876;2022-08-24T05:23:25;18.67;;;14.90;;
67841;SDS011;54642;59.126;37.876;2022-08-24T05:25:51;23.88;;;17.17;;
67841;SDS011;54642;59.126;37.876;2022-08-24T05:28:18;30.40;;;16.05;;
67841;SDS011;54642;59.126;37.876;2022-08-24T05:30:45;20.77;;;14.77;;
67841;SDS011;54642;59.126;37.876;2022-08-24T05:33:11;24.55;;;16.35;;
67841;SDS011;54642;59.126;37.876;2022-08-24T05:35:38;24.27;;;16.30;;
67841;SDS011;54642;59.126;37.876;2022-08-24T05:38:05;23.33;;;16.23;;
67841;SDS011;54642;59.126;37.876;2022-08-24T05:40:35;27.60;;;17.55;;
67841;SDS011;54642;59.126;37.876;2022-08-24T05:43:01;21.55;;;16.42;;
67841;SDS011;54642;59.126;37.876;2022-08-24T05:45:27;22.08;;;16.73;;
67841;SDS011;54642;59.126;37.876;2022-08-24T05:47:54;21.00;;;15.55;;
67841;SDS011;54642;59.126;37.876;2022-08-24T05:50:39;26.95;;;15.38;;
67841;SDS011;54642;59.126;37.876;2022-08-24T05:53:07;22.27;;;17.38;;
67841;SDS011;54642;59.126;37.876;2022-08-24T05:55:37;24.52;;;15.82;;
67841;SDS011;54642;59.126;37.876;2022-08-24T05:58:03;21.58;;;14.55;;
67841;SDS011;54642;59.126;37.876;2022-08-24T06:00:29;21.15;;;16.50;;
67841;SDS011;54642;59.126;37.876;2022-08-24T06:02:57;21.63;;;15.77;;
67841;SDS011;54642;59.126;37.876;2022-08-24T06:05:23;29.60;;;14.88;;
67841;SDS011;54642;59.126;37.876;2022-08-24T06:07:49;23.60;;;16.35;;
67841;SDS011;54642;59.126;37.876;2022-08-24T06:10:15;23.52;;;17.13;;
67841;SDS011;54642;59.126;37.876;2022-08-24T06:12:41;21.50;;;14.25;;
67841;SDS011;54642;59.126;37.876;2022-08-24T06:15:07;23.33;;;15.32;;
67841;SDS011;54642;59.126;37.876;2022-08-24T06:17:33;23.65;;;16.20;;
67841;SDS011;54642;59.126;37.876;2022-08-24T06:19:59;24.35;;;15.98;;
67841;SDS011;54642;59.126;37.876;2022-08-24T06:22:25;22.10;;;14.82;;
67841;SDS011;54642;59.126;37.876;2022-08-24T06:24:51;19.70;;;14.13;;
67841;SDS011;54642;59.126;37.876;2022-08-24T06:27:35;25.85;;;16.77;;
67841;SDS011;54642;59.126;37.876;2022-08-24T06:30:05;21.67;;;15.73;;
67841;SDS011;54642;59.126;37.876;2022-08-24T06:32:42;23.35;;;16.95;;
67841;SDS011;54642;59.126;37.876;2022-08-24T06:35:15;22.75;;;16.70;;
67841;SDS011;54642;59.126;37.876;2022-08-24T06:37:41;26.15;;;16.33;;
67841;SDS011;54642;59.126;37.876;2022-08-24T06:40:07;23.67;;;14.02;;
67841;SDS011;54642;59.126;37.876;2022-08-24T06:42:34;20.55;;;13.73;;
67841;SDS011;54642;59.126;37.876;2022-08-24T06:45:00;21.35;;;14.35;;
67841;SDS011;54642;59.126;37.876;2022-08-24T06:47:29;24.08;;;16.85;;
67841;SDS011;54642;59.126;37.876;2022-08-24T06:49:59;25.52;;;16.13;;
67841;SDS011;54642;59.126;37.876;2022-08-24T06:52:27;21.95;;;17.17;;
67841;SDS011;54642;59.126;37.876;2022-08-24T06:54:54;28.83;;;17.42;;
67841;SDS011;54642;59.126;37.876;2022-08-24T06:57:20;23.17;;;16.27;;
67841;SDS011;54642;59.126;37.876;2022-08-24T06:59:46;30.92;;;18.33;;
67841;SDS011;54642;59.126;37.876;2022-08-24T07:02:12;23.88;;;15.18;;
67841;SDS011;54642;59.126;37.876;2022-08-24T07:04:41;26.25;;;16.00;;
67841;SDS011;54642;59.126;37.876;2022-08-24T07:07:26;23.33;;;14.95;;
67841;SDS011;54642;59.126;37.876;2022-08-24T07:09:52;21.88;;;16.77;;
67841;SDS011;54642;59.126;37.876;2022-08-24T07:12:18;23.33;;;16.17;;
67841;SDS011;54642;59.126;37.876;2022-08-24T07:14:44;28.10;;;15.80;;
67841;SDS011;54642;59.126;37.876;2022-08-24T07:17:11;25.73;;;15.30;;
67841;SDS011;54642;59.126;37.876;2022-08-24T07:19:38;20.73;;;14.25;;
67841;SDS011;54642;59.126;37.876;2022-08-24T07:22:06;21.70;;;13.40;;
67841;SDS011;54642;59.126;37.876;2022-08-24T07:24:33;21.77;;;15.02;;
67841;SDS011;54642;59.126;37.876;2022-08-24T07:26:59;18.55;;;13.98;;
67841;SDS011;54642;59.126;37.876;2022-08-24T07:29:25;23.08;;;14.10;;
67841;SDS011;54642;59.126;37.876;2022-08-24T07:31:51;20.35;;;12.40;;
67841;SDS011;54642;59.126;37.876;2022-08-24T07:34:38;20.63;;;13.90;;
67841;SDS011;54642;59.126;37.876;2022-08-24T07:37:06;20.98;;;15.13;;
67841;SDS011;54642;59.126;37.876;2022-08-24T07:39:34;26.25;;;15.00;;
67841;SDS011;54642;59.126;37.876;2022-08-24T07:42:00;17.27;;;13.00;;
67841;SDS011;54642;59.126;37.876;2022-08-24T07:44:26;20.33;;;13.85;;
67841;SDS011;54642;59.126;37.876;2022-08-24T07:46:53;21.05;;;12.02;;
67841;SDS011;54642;59.126;37.876;2022-08-24T07:49:19;21.42;;;13.85;;
67841;SDS011;54642;59.126;37.876;2022-08-24T07:51:45;21.20;;;12.40;;
67841;SDS011;54642;59.126;37.876;2022-08-24T07:54:13;20.20;;;13.15;;
67841;SDS011;54642;59.126;37.876;2022-08-24T07:56:42;21.67;;;12.68;;
67841;SDS011;54642;59.126;37.876;2022-08-24T07:59:09;19.83;;;13.23;;
67841;SDS011;54642;59.126;37.876;2022-08-24T08:01:35;22.45;;;12.18;;
67841;SDS011;54642;59.126;37.876;2022-08-24T08:04:02;23.30;;;12.20;;
67841;SDS011;54642;59.126;37.876;2022-08-24T08:06:29;21.38;;;14.52;;
67841;SDS011;54642;59.126;37.876;2022-08-24T08:08:59;20.25;;;13.85;;
67841;SDS011;54642;59.126;37.876;2022-08-24T08:11:28;18.50;;;14.43;;
67841;SDS011;54642;59.126;37.876;2022-08-24T08:13:54;16.30;;;14.15;;
67841;SDS011;54642;59.126;37.876;2022-08-24T08:16:20;20.80;;;14.32;;
67841;SDS011;54642;59.126;37.876;2022-08-24T08:18:47;25.98;;;13.57;;
67841;SDS011;54642;59.126;37.876;2022-08-24T08:21:13;19.73;;;12.20;;
67841;SDS011;54642;59.126;37.876;2022-08-24T08:24:00;20.50;;;13.15;;
67841;SDS011;54642;59.126;37.876;2022-08-24T08:26:47;30.42;;;14.23;;
67841;SDS011;54642;59.126;37.876;2022-08-24T08:29:30;22.38;;;12.75;;
67841;SDS011;54642;59.126;37.876;2022-08-24T08:31:57;18.17;;;12.95;;
67841;SDS011;54642;59.126;37.876;2022-08-24T08:34:23;17.25;;;12.05;;
67841;SDS011;54642;59.126;37.876;2022-08-24T08:36:49;23.83;;;12.13;;
67841;SDS011;54642;59.126;37.876;2022-08-24T08:39:16;18.15;;;12.30;;
67841;SDS011;54642;59.126;37.876;2022-08-24T08:55:44;24.88;;;15.30;;
67841;SDS011;54642;59.126;37.876;2022-08-24T09:12:19;23.13;;;15.98;;
67841;SDS011;54642;59.126;37.876;2022-08-24T09:15:27;23.25;;;15.23;;
67841;SDS011;54642;59.126;37.876;2022-08-24T09:34:33;20.00;;;12.88;;
67841;SDS011;54642;59.126;37.876;2022-08-24T09:39:54;18.35;;;12.73;;
67841;SDS011;54642;59.126;37.876;2022-08-24T09:59:19;14.50;;;9.13;;
67841;SDS011;54642;59.126;37.876;2022-08-24T10:11:04;17.50;;;9.00;;
67841;SDS011;54642;59.126;37.876;2022-08-24T10:19:04;15.75;;;9.50;;
67841;SDS011;54642;59.126;37.876;2022-08-24T10:21:53;13.68;;;9.65;;
67841;SDS011;54642;59.126;37.876;2022-08-24T10:27:14;15.70;;;10.18;;
67841;SDS011;54642;59.126;37.876;2022-08-24T10:35:34;18.30;;;9.65;;
67841;SDS011;54642;59.126;37.876;2022-08-24T10:38:56;20.02;;;9.15;;
67841;SDS011;54642;59.126;37.876;2022-08-24T10:44:19;17.00;;;11.13;;
67841;SDS011;54642;59.126;37.876;2022-08-24T10:55:22;20.08;;;10.25;;
67841;SDS011;54642;59.126;37.876;2022-08-24T11:04:11;21.63;;;11.35;;
67841;SDS011;54642;59.126;37.876;2022-08-24T11:17:52;14.95;;;10.90;;
67841;SDS011;54642;59.126;37.876;2022-08-24T11:20:34;14.63;;;11.27;;
67841;SDS011;54642;59.126;37.876;2022-08-24T11:23:21;17.48;;;10.77;;
67841;SDS011;54642;59.126;37.876;2022-08-24T11:26:02;18.65;;;11.48;;
67841;SDS011;54642;59.126;37.876;2022-08-24T11:28:44;22.92;;;13.35;;
67841;SDS011;54642;59.126;37.876;2022-08-24T11:31:34;21.95;;;13.30;;
67841;SDS011;54642;59.126;37.876;2022-08-24T11:34:06;16.58;;;13.10;;
67841;SDS011;54642;59.126;37.876;2022-08-24T11:36:36;23.55;;;15.05;;
67841;SDS011;54642;59.126;37.876;2022-08-24T11:44:36;15.27;;;12.32;;
67841;SDS011;54642;59.126;37.876;2022-08-24T11:47:23;20.45;;;14.07;;
67841;SDS011;54642;59.126;37.876;2022-08-24T11:55:01;19.38;;;12.32;;
67841;SDS011;54642;59.126;37.876;2022-08-24T11:57:58;21.52;;;13.05;;
67841;SDS011;54642;59.126;37.876;2022-08-24T12:00:47;19.10;;;14.60;;
67841;SDS011;54642;59.126;37.876;2022-08-24T12:09:18;19.65;;;14.02;;
67841;SDS011;54642;59.126;37.876;2022-08-24T12:14:58;20.25;;;13.50;;
67841;SDS011;54642;59.126;37.876;2022-08-24T12:25:53;17.60;;;12.70;;
67841;SDS011;54642;59.126;37.876;2022-08-24T12:28:29;21.48;;;13.48;;
67841;SDS011;54642;59.126;37.876;2022-08-24T12:31:02;22.30;;;13.77;;
67841;SDS011;54642;59.126;37.876;2022-08-24T12:33:35;16.25;;;12.30;;
67841;SDS011;54642;59.126;37.876;2022-08-24T12:36:06;18.33;;;13.48;;
67841;SDS011;54642;59.126;37.876;2022-08-24T12:38:41;20.42;;;14.55;;
67841;SDS011;54642;59.126;37.876;2022-08-24T12:41:32;20.83;;;14.98;;
67841;SDS011;54642;59.126;37.876;2022-08-24T12:44:09;22.08;;;15.40;;
67841;SDS011;54642;59.126;37.876;2022-08-24T12:46:39;21.77;;;13.85;;
67841;SDS011;54642;59.126;37.876;2022-08-24T12:49:20;16.70;;;14.48;;
67841;SDS011;54642;59.126;37.876;2022-08-24T13:17:49;15.05;;;10.82;;
67841;SDS011;54642;59.126;37.876;2022-08-24T13:39:05;17.42;;;10.88;;
67841;SDS011;54642;59.126;37.876;2022-08-24T13:50:09;16.00;;;11.23;;
67841;SDS011;54642;59.126;37.876;2022-08-24T13:53:03;15.48;;;10.35;;
67841;SDS011;54642;59.126;37.876;2022-08-24T13:58:38;16.38;;;10.35;;
67841;SDS011;54642;59.126;37.876;2022-08-24T14:09:40;16.17;;;10.27;;
67841;SDS011;54642;59.126;37.876;2022-08-24T14:15:06;15.60;;;10.55;;
67841;SDS011;54642;59.126;37.876;2022-08-24T14:25:42;16.85;;;11.45;;
67841;SDS011;54642;59.126;37.876;2022-08-24T14:28:23;20.80;;;10.75;;
67841;SDS011;54642;59.126;37.876;2022-08-24T14:39:35;19.73;;;11.52;;
67841;SDS011;54642;59.126;37.876;2022-08-24T14:42:31;17.23;;;12.25;;
67841;SDS011;54642;59.126;37.876;2022-08-24T14:48:17;15.35;;;11.07;;
67841;SDS011;54642;59.126;37.876;2022-08-24T15:01:27;14.93;;;10.25;;
67841;SDS011;54642;59.126;37.876;2022-08-24T15:09:48;15.73;;;11.55;;
67841;SDS011;54642;59.126;37.876;2022-08-24T15:15:07;16.48;;;10.68;;
67841;SDS011;54642;59.126;37.876;2022-08-24T15:17:49;14.77;;;10.73;;
67841;SDS011;54642;59.126;37.876;2022-08-24T15:29:13;16.63;;;11.98;;
67841;SDS011;54642;59.126;37.876;2022-08-24T15:31:42;18.13;;;11.23;;
67841;SDS011;54642;59.126;37.876;2022-08-24T15:34:19;22.55;;;13.48;;
67841;SDS011;54642;59.126;37.876;2022-08-24T15:39:26;18.35;;;13.20;;
67841;SDS011;54642;59.126;37.876;2022-08-24T15:41:53;17.13;;;11.77;;
67841;SDS011;54642;59.126;37.876;2022-08-24T15:44:27;20.10;;;12.45;;
67841;SDS011;54642;59.126;37.876;2022-08-24T15:46:56;18.33;;;13.68;;
67841;SDS011;54642;59.126;37.876;2022-08-24T15:49:26;22.15;;;13.80;;
67841;SDS011;54642;59.126;37.876;2022-08-24T15:54:26;23.27;;;15.50;;
67841;SDS011;54642;59.126;37.876;2022-08-24T16:10:33;21.52;;;14.02;;
67841;SDS011;54642;59.126;37.876;2022-08-24T16:15:44;19.13;;;14.15;;
67841;SDS011;54642;59.126;37.876;2022-08-24T16:18:47;23.67;;;12.48;;
67841;SDS011;54642;59.126;37.876;2022-08-24T16:24:01;20.63;;;13.98;;
67841;SDS011;54642;59.126;37.876;2022-08-24T16:34:40;20.17;;;14.00;;
67841;SDS011;54642;59.126;37.876;2022-08-24T16:37:07;23.05;;;14.27;;
67841;SDS011;54642;59.126;37.876;2022-08-24T16:39:33;20.73;;;13.00;;
67841;SDS011;54642;59.126;37.876;2022-08-24T16:42:04;21.52;;;14.45;;
67841;SDS011;54642;59.126;37.876;2022-08-24T16:44:36;22.27;;;14.43;;
67841;SDS011;54642;59.126;37.876;2022-08-24T16:47:04;21.27;;;14.10;;
67841;SDS011;54642;59.126;37.876;2022-08-24T16:49:31;20.10;;;15.02;;
67841;SDS011;54642;59.126;37.876;2022-08-24T16:51:58;19.85;;;13.60;;
67841;SDS011;54642;59.126;37.876;2022-08-24T16:54:25;21.38;;;13.80;;
67841;SDS011;54642;59.126;37.876;2022-08-24T16:56:51;18.40;;;12.57;;
67841;SDS011;54642;59.126;37.876;2022-08-24T16:59:26;19.95;;;12.05;;
67841;SDS011;54642;59.126;37.876;2022-08-24T17:01:54;26.70;;;15.27;;
67841;SDS011;54642;59.126;37.876;2022-08-24T17:04:20;22.63;;;14.00;;
67841;SDS011;54642;59.126;37.876;2022-08-24T17:06:46;21.08;;;12.93;;
67841;SDS011;54642;59.126;37.876;2022-08-24T17:09:16;24.63;;;13.40;;
67841;SDS011;54642;59.126;37.876;2022-08-24T17:11:42;18.83;;;12.40;;
67841;SDS011;54642;59.126;37.876;2022-08-24T17:14:09;36.25;;;23.45;;
67841;SDS011;54642;59.126;37.876;2022-08-24T17:16:35;23.02;;;16.80;;
67841;SDS011;54642;59.126;37.876;2022-08-24T17:19:07;20.17;;;16.80;;
67841;SDS011;54642;59.126;37.876;2022-08-24T17:21:36;22.05;;;16.00;;
67841;SDS011;54642;59.126;37.876;2022-08-24T17:24:04;21.30;;;13.65;;
67841;SDS011;54642;59.126;37.876;2022-08-24T17:26:34;19.25;;;12.52;;
67841;SDS011;54642;59.126;37.876;2022-08-24T17:29:01;19.45;;;12.00;;
67841;SDS011;54642;59.126;37.876;2022-08-24T17:31:29;20.17;;;12.40;;
67841;SDS011;54642;59.126;37.876;2022-08-24T17:33:56;18.83;;;12.38;;
67841;SDS011;54642;59.126;37.876;2022-08-24T17:36:23;20.30;;;13.05;;
67841;SDS011;54642;59.126;37.876;2022-08-24T17:38:49;20.98;;;12.60;;
67841;SDS011;54642;59.126;37.876;2022-08-24T17:41:18;22.95;;;15.93;;
67841;SDS011;54642;59.126;37.876;2022-08-24T17:43:45;39.30;;;25.48;;
67841;SDS011;54642;59.126;37.876;2022-08-24T17:46:12;16.17;;;13.00;;
67841;SDS011;54642;59.126;37.876;2022-08-24T17:48:40;21.25;;;16.63;;
67841;SDS011;54642;59.126;37.876;2022-08-24T17:51:08;17.88;;;12.82;;
67841;SDS011;54642;59.126;37.876;2022-08-24T17:53:35;18.83;;;13.25;;
67841;SDS011;54642;59.126;37.876;2022-08-24T17:56:02;17.77;;;12.07;;
67841;SDS011;54642;59.126;37.876;2022-08-24T17:58:28;20.90;;;12.45;;
67841;SDS011;54642;59.126;37.876;2022-08-24T18:00:54;21.60;;;14.02;;
67841;SDS011;54642;59.126;37.876;2022-08-24T18:03:20;24.80;;;19.13;;
67841;SDS011;54642;59.126;37.876;2022-08-24T18:05:47;26.05;;;16.67;;
67841;SDS011;54642;59.126;37.876;2022-08-24T18:08:13;20.90;;;11.73;;
67841;SDS011;54642;59.126;37.876;2022-08-24T18:10:39;17.05;;;11.98;;
67841;SDS011;54642;59.126;37.876;2022-08-24T18:13:05;22.63;;;13.60;;
67841;SDS011;54642;59.126;37.876;2022-08-24T18:15:33;19.67;;;13.77;;
67841;SDS011;54642;59.126;37.876;2022-08-24T18:18:00;16.83;;;13.60;;
67841;SDS011;54642;59.126;37.876;2022-08-24T18:20:28;17.98;;;13.10;;
67841;SDS011;54642;59.126;37.876;2022-08-24T18:22:59;18.10;;;13.70;;
67841;SDS011;54642;59.126;37.876;2022-08-24T18:25:27;16.15;;;14.45;;
67841;SDS011;54642;59.126;37.876;2022-08-24T18:27:55;21.15;;;15.63;;
67841;SDS011;54642;59.126;37.876;2022-08-24T18:30:27;15.52;;;12.18;;
67841;SDS011;54642;59.126;37.876;2022-08-24T18:32:54;26.17;;;16.83;;
67841;SDS011;54642;59.126;37.876;2022-08-24T18:35:21;23.13;;;18.55;;
67841;SDS011;54642;59.126;37.876;2022-08-24T18:37:47;27.35;;;16.50;;
67841;SDS011;54642;59.126;37.876;2022-08-24T18:40:15;36.90;;;24.58;;
67841;SDS011;54642;59.126;37.876;2022-08-24T18:42:43;22.52;;;16.60;;
67841;SDS011;54642;59.126;37.876;2022-08-24T18:45:10;17.10;;;13.50;;
67841;SDS011;54642;59.126;37.876;2022-08-24T18:47:38;17.92;;;15.68;;
67841;SDS011;54642;59.126;37.876;2022-08-24T18:50:05;18.23;;;13.52;;
67841;SDS011;54642;59.126;37.876;2022-08-24T18:52:32;16.75;;;12.38;;
67841;SDS011;54642;59.126;37.876;2022-08-24T18:55:01;17.88;;;14.27;;
67841;SDS011;54642;59.126;37.876;2022-08-24T18:57:27;23.60;;;14.10;;
67841;SDS011;54642;59.126;37.876;2022-08-24T18:59:54;22.92;;;16.33;;
67841;SDS011;54642;59.126;37.876;2022-08-24T19:02:21;22.17;;;13.27;;
67841;SDS011;54642;59.126;37.876;2022-08-24T19:05:11;17.65;;;11.48;;
67841;SDS011;54642;59.126;37.876;2022-08-24T19:07:48;19.85;;;14.07;;
67841;SDS011;54642;59.126;37.876;2022-08-24T19:10:20;17.05;;;14.43;;
67841;SDS011;54642;59.126;37.876;2022-08-24T19:12:51;20.45;;;14.68;;
67841;SDS011;54642;59.126;37.876;2022-08-24T19:15:22;18.73;;;13.55;;
67841;SDS011;54642;59.126;37.876;2022-08-24T19:17:49;17.17;;;12.57;;
67841;SDS011;54642;59.126;37.876;2022-08-24T19:20:15;22.10;;;15.30;;
67841;SDS011;54642;59.126;37.876;2022-08-24T19:22:43;16.13;;;12.75;;
67841;SDS011;54642;59.126;37.876;2022-08-24T19:25:20;24.67;;;14.45;;